createdAt,value
2022-12-25T00:01:08.675Z,99081.41
2022-12-25T00:03:36.971Z,99078.13
2022-12-25T00:06:04.021Z,99082.69
2022-12-25T00:08:31.147Z,99078.94
2022-12-25T00:11:11.489Z,99076.47
2022-12-25T00:13:38.649Z,99078.56
2022-12-25T00:16:11.534Z,99081.03
2022-12-25T00:18:38.374Z,99078.34
2022-12-25T00:21:06.999Z,99082.91
2022-12-25T00:23:35.157Z,99091.00
2022-12-25T00:26:11.029Z,99092.06
2022-12-25T00:28:38.015Z,99084.78
2022-12-25T00:31:14.286Z,99098.66
2022-12-25T00:33:43.420Z,99095.09
2022-12-25T00:36:11.901Z,99089.47
2022-12-25T00:38:40.346Z,99088.41
2022-12-25T00:41:12.932Z,99084.66
2022-12-25T00:43:41.862Z,99085.34
2022-12-25T00:46:10.489Z,99083.62
2022-12-25T00:48:38.288Z,99095.06
2022-12-25T00:51:07.713Z,99103.16
2022-12-25T00:53:34.549Z,99102.13
2022-12-25T00:56:05.336Z,99111.25
2022-12-25T00:58:33.597Z,99105.03
2022-12-25T01:01:00.987Z,99108.78
2022-12-25T01:03:28.524Z,99106.47
2022-12-25T01:06:00.953Z,99101.66
2022-12-25T01:08:30.844Z,99100.63
2022-12-25T01:11:08.564Z,99093.56
2022-12-25T01:13:37.188Z,99097.53
2022-12-25T01:16:11.421Z,99097.53
2022-12-25T01:18:39.000Z,99112.69
2022-12-25T01:21:10.382Z,99110.00
2022-12-25T01:23:37.871Z,99107.28
2022-12-25T01:26:06.560Z,99116.22
2022-12-25T01:28:33.412Z,99111.88
2022-12-25T01:31:00.273Z,99117.87
2022-12-25T01:33:27.284Z,99109.78
2022-12-25T01:35:54.275Z,99122.00
2022-12-25T01:38:21.885Z,99117.66
2022-12-25T01:40:48.731Z,99116.37
2022-12-25T01:43:27.207Z,99126.97
2022-12-25T01:45:54.272Z,99119.69
2022-12-25T01:48:25.598Z,99125.91
2022-12-25T01:50:59.361Z,99124.03
2022-12-25T01:53:26.890Z,99121.34
2022-12-25T01:56:01.135Z,99107.63
2022-12-25T01:58:29.158Z,99116.78
2022-12-25T02:00:56.048Z,99113.03
2022-12-25T02:03:23.838Z,99111.97
2022-12-25T02:05:51.136Z,99123.59
2022-12-25T02:08:20.716Z,99115.06
2022-12-25T02:10:47.920Z,99125.88
2022-12-25T02:13:18.307Z,99129.38
2022-12-25T02:16:13.392Z,99124.81
2022-12-25T02:19:01.089Z,99132.91
2022-12-25T02:21:36.985Z,99125.66
2022-12-25T02:24:22.397Z,99119.19
2022-12-25T02:26:51.890Z,99121.06
2022-12-25T02:29:42.567Z,99118.97
2022-12-25T02:33:20.252Z,99118.97
2022-12-25T02:35:52.431Z,99113.38
2022-12-25T02:38:33.987Z,99115.84
2022-12-25T02:41:09.652Z,99118.94
2022-12-25T02:44:02.462Z,99119.75
2022-12-25T02:46:51.519Z,99127.03
2022-12-25T02:49:42.328Z,99127.88
2022-12-25T02:52:31.456Z,99134.72
2022-12-25T02:55:23.883Z,99126.38
2022-12-25T02:58:13.010Z,99116.41
2022-12-25T03:01:03.172Z,99126.97
2022-12-25T03:03:52.061Z,99118.88
2022-12-25T03:06:39.155Z,99123.00
2022-12-25T03:09:27.474Z,99120.09
2022-12-25T03:12:13.419Z,99121.75
2022-12-25T03:14:58.802Z,99122.56
2022-12-25T03:17:25.829Z,99125.03
2022-12-25T03:20:11.289Z,99123.78
2022-12-25T03:22:57.807Z,99120.03
2022-12-25T03:25:43.281Z,99122.94
2022-12-25T03:28:10.120Z,99127.09
2022-12-25T03:31:13.299Z,99119.81
2022-12-25T03:34:38.228Z,99127.09
2022-12-25T03:37:07.595Z,99117.72
2022-12-25T03:39:49.597Z,99117.13
2022-12-25T03:42:39.502Z,99117.72
2022-12-25T03:45:31.023Z,99117.50
2022-12-25T03:48:13.190Z,99119.75
2022-12-25T03:51:12.391Z,99120.59
2022-12-25T03:54:05.544Z,99119.97
2022-12-25T03:56:52.797Z,99119.16
2022-12-25T03:59:40.240Z,99121.62
2022-12-25T04:02:25.942Z,99113.75
2022-12-25T04:05:11.606Z,99124.13
2022-12-25T04:07:57.453Z,99135.75
2022-12-25T04:10:42.949Z,99133.06
2022-12-25T04:13:29.043Z,99130.34
2022-12-25T04:16:14.690Z,99138.75
2022-12-25T04:19:00.442Z,99132.50
2022-12-25T04:21:45.781Z,99133.72
2022-12-25T04:24:31.505Z,99140.19
2022-12-25T04:27:17.336Z,99142.09
2022-12-25T04:30:02.986Z,99145.84
2022-12-25T04:32:48.098Z,99152.91
2022-12-25T04:35:33.907Z,99149.38
2022-12-25T04:38:00.757Z,99149.59
2022-12-25T04:40:27.790Z,99140.44
2022-12-25T04:42:54.659Z,99148.09
2022-12-25T04:45:21.439Z,99140.19
2022-12-25T04:47:48.344Z,99144.53
2022-12-25T04:50:15.275Z,99151.81
2022-12-25T04:52:42.346Z,99153.69
2022-12-25T04:55:11.246Z,99152.41
2022-12-25T04:57:38.498Z,99157.81
2022-12-25T05:00:06.904Z,99159.69
2022-12-25T05:02:33.966Z,99157.00
2022-12-25T05:05:01.011Z,99157.81
2022-12-25T05:07:27.827Z,99160.53
2022-12-25T05:09:54.651Z,99151.44
2022-12-25T05:12:21.498Z,99161.59
2022-12-25T05:14:48.280Z,99162.66
2022-12-25T05:17:15.131Z,99162.87
2022-12-25T05:19:42.858Z,99158.28
2022-12-25T05:22:09.783Z,99155.59
2022-12-25T05:24:36.616Z,99149.97
2022-12-25T05:27:03.500Z,99149.38
2022-12-25T05:29:30.347Z,99153.72
2022-12-25T05:31:57.168Z,99154.53
2022-12-25T05:34:24.036Z,99153.94
2022-12-25T05:36:50.852Z,99153.94
2022-12-25T05:39:17.722Z,99155.16
2022-12-25T05:41:44.601Z,99155.37
2022-12-25T05:44:12.578Z,99147.25
2022-12-25T05:46:39.962Z,99152.91
2022-12-25T05:49:06.852Z,99150.41
2022-12-25T05:51:33.716Z,99144.19
2022-12-25T05:54:00.575Z,99146.66
2022-12-25T05:56:27.438Z,99148.53
2022-12-25T05:58:54.912Z,99153.13
2022-12-25T06:01:24.804Z,99148.72
2022-12-25T06:03:52.119Z,99141.03
2022-12-25T06:06:19.260Z,99142.31
2022-12-25T06:08:46.302Z,99140.44
2022-12-25T06:11:14.116Z,99151.69
2022-12-25T06:13:41.445Z,99146.28
2022-12-25T06:16:11.163Z,99139.22
2022-12-25T06:18:44.462Z,99138.41
2022-12-25T06:21:13.330Z,99140.28
2022-12-25T06:23:40.317Z,99146.13
2022-12-25T06:26:13.978Z,99147.78
2022-12-25T06:28:41.032Z,99145.50
2022-12-25T06:31:20.738Z,99148.44
2022-12-25T06:33:48.412Z,99151.12
2022-12-25T06:36:18.586Z,99155.09
2022-12-25T06:38:45.678Z,99158.03
2022-12-25T06:41:18.631Z,99163.66
2022-12-25T06:43:54.693Z,99159.50
2022-12-25T06:46:23.093Z,99165.34
2022-12-25T06:48:50.300Z,99168.47
2022-12-25T06:51:19.855Z,99167.03
2022-12-25T06:53:47.625Z,99161.03
2022-12-25T06:56:17.982Z,99164.16
2022-12-25T06:58:50.470Z,99168.13
2022-12-25T07:01:22.231Z,99174.81
2022-12-25T07:03:51.966Z,99172.72
2022-12-25T07:06:19.147Z,99183.97
2022-12-25T07:08:46.012Z,99192.50
2022-12-25T07:11:13.248Z,99198.34
2022-12-25T07:13:40.176Z,99198.16
2022-12-25T07:16:07.897Z,99196.72
2022-12-25T07:18:35.308Z,99209.41
2022-12-25T07:21:07.140Z,99203.59
2022-12-25T07:23:34.176Z,99206.53
2022-12-25T07:26:02.417Z,99205.06
2022-12-25T07:28:30.291Z,99209.63
2022-12-25T07:31:05.328Z,99197.59
2022-12-25T07:33:32.568Z,99199.69
2022-12-25T07:35:59.876Z,99197.22
2022-12-25T07:38:27.055Z,99202.81
2022-12-25T07:40:54.031Z,99204.44
2022-12-25T07:43:21.059Z,99202.59
2022-12-25T07:45:48.184Z,99207.19
2022-12-25T07:48:16.790Z,99219.41
2022-12-25T07:50:43.987Z,99227.72
2022-12-25T07:53:10.861Z,99233.53
2022-12-25T07:55:37.684Z,99240.38
2022-12-25T07:58:07.037Z,99242.25
2022-12-25T08:00:34.193Z,99239.56
2022-12-25T08:03:01.338Z,99242.25
2022-12-25T08:05:28.224Z,99249.31
2022-12-25T08:07:58.002Z,99252.84
2022-12-25T08:10:25.154Z,99265.06
2022-12-25T08:12:52.174Z,99259.03
2022-12-25T08:15:19.048Z,99254.69
2022-12-25T08:17:46.242Z,99248.25
2022-12-25T08:20:13.748Z,99248.25
2022-12-25T08:22:40.599Z,99243.47
2022-12-25T08:25:07.880Z,99253.25
2022-12-25T08:27:34.861Z,99243.06
2022-12-25T08:30:01.633Z,99243.88
2022-12-25T08:32:28.464Z,99249.06
2022-12-25T08:34:55.239Z,99251.53
2022-12-25T08:37:22.023Z,99239.69
2022-12-25T08:39:48.873Z,99243.22
2022-12-25T08:42:15.682Z,99240.53
2022-12-25T08:44:42.644Z,99243.00
2022-12-25T08:47:09.450Z,99248.78
2022-12-25T08:49:36.816Z,99246.06
2022-12-25T08:52:03.802Z,99240.44
2022-12-25T08:54:32.595Z,99247.31
2022-12-25T08:57:03.035Z,99250.62
2022-12-25T08:59:30.238Z,99244.78
2022-12-25T09:01:57.052Z,99246.25
2022-12-25T09:04:23.898Z,99255.56
2022-12-25T09:06:51.160Z,99253.47
2022-12-25T09:09:17.955Z,99256.56
2022-12-25T09:11:44.833Z,99256.78
2022-12-25T09:14:13.819Z,99254.28
2022-12-25T09:16:40.720Z,99262.78
2022-12-25T09:19:07.572Z,99265.88
2022-12-25T09:21:36.799Z,99253.84
2022-12-25T09:24:04.844Z,99246.97
2022-12-25T09:26:31.779Z,99241.13
2022-12-25T09:28:58.650Z,99239.84
2022-12-25T09:31:25.566Z,99223.16
2022-12-25T09:33:56.859Z,99227.47
2022-12-25T09:36:24.267Z,99230.56
2022-12-25T09:38:51.433Z,99231.84
2022-12-25T09:41:50.274Z,99234.31
2022-12-25T09:44:22.792Z,99235.53
2022-12-25T09:47:03.849Z,99241.09
2022-12-25T09:50:00.048Z,99237.72
2022-12-25T09:52:37.677Z,99240.84
2022-12-25T09:55:20.500Z,99234.78
2022-12-25T09:58:01.726Z,99235.19
2022-12-25T10:00:36.066Z,99232.66
2022-12-25T10:03:27.951Z,99229.28
2022-12-25T10:06:13.343Z,99227.59
2022-12-25T10:08:57.931Z,99235.03
2022-12-25T10:11:52.498Z,99236.00
2022-12-25T10:14:48.890Z,99232.63
2022-12-25T10:17:42.831Z,99236.53
2022-12-25T10:20:25.926Z,99228.63
2022-12-25T10:23:02.188Z,99219.81
2022-12-25T10:25:30.029Z,99228.31
2022-12-25T10:28:11.890Z,99221.41
2022-12-25T10:30:42.821Z,99211.78
2022-12-25T10:33:16.852Z,99218.38
2022-12-25T10:35:44.967Z,99213.16
2022-12-25T10:38:17.762Z,99212.69
2022-12-25T10:40:56.795Z,99205.78
2022-12-25T10:43:45.767Z,99200.72
2022-12-25T10:46:15.584Z,99202.75
2022-12-25T10:48:58.812Z,99190.41
2022-12-25T10:51:30.833Z,99195.16
2022-12-25T10:53:57.725Z,99192.00
2022-12-25T10:56:24.655Z,99198.84
2022-12-25T10:58:51.469Z,99196.50
2022-12-25T11:01:18.467Z,99189.81
2022-12-25T11:03:51.294Z,99189.34
2022-12-25T11:06:29.372Z,99188.88
2022-12-25T11:09:02.195Z,99169.47
2022-12-25T11:11:30.215Z,99178.81
2022-12-25T11:14:02.864Z,99169.63
2022-12-25T11:16:36.550Z,99171.63
2022-12-25T11:19:04.371Z,99166.56
2022-12-25T11:21:36.685Z,99171.75
2022-12-25T11:24:17.966Z,99167.53
2022-12-25T11:26:53.521Z,99161.88
2022-12-25T11:29:38.365Z,99173.72
2022-12-25T11:32:12.927Z,99172.41
2022-12-25T11:34:49.687Z,99158.41
2022-12-25T11:37:39.824Z,99155.22
2022-12-25T11:40:13.842Z,99165.47
2022-12-25T11:42:45.935Z,99150.75
2022-12-25T11:45:20.932Z,99149.22
2022-12-25T11:48:07.356Z,99147.94
2022-12-25T11:50:41.987Z,99147.84
2022-12-25T11:53:20.425Z,99131.56
2022-12-25T11:55:55.025Z,99131.34
2022-12-25T11:58:40.595Z,99131.94
2022-12-25T12:01:45.421Z,99130.63
2022-12-25T12:04:42.601Z,99118.50
2022-12-25T12:07:12.870Z,99126.16
2022-12-25T12:10:10.580Z,99114.00
2022-12-25T12:12:52.381Z,99122.72
2022-12-25T12:15:19.137Z,99120.66
2022-12-25T12:17:45.966Z,99116.87
2022-12-25T12:20:34.610Z,99117.50
2022-12-25T12:23:10.900Z,99114.31
2022-12-25T12:25:44.693Z,99119.50
2022-12-25T12:28:22.663Z,99115.47
2022-12-25T12:31:08.892Z,99122.56
2022-12-25T12:33:41.452Z,99124.19
2022-12-25T12:36:13.705Z,99126.44
2022-12-25T12:38:43.625Z,99127.03
2022-12-25T12:41:13.925Z,99133.03
2022-12-25T12:43:43.139Z,99131.97
2022-12-25T12:46:27.921Z,99124.41
2022-12-25T12:49:20.489Z,99127.75
2022-12-25T12:51:47.333Z,99119.38
2022-12-25T12:54:24.308Z,99123.50
2022-12-25T12:57:01.582Z,99119.72
2022-12-25T12:59:39.065Z,99118.41
2022-12-25T13:02:06.825Z,99111.69
2022-12-25T13:05:03.869Z,99109.81
2022-12-25T13:07:45.216Z,99113.94
2022-12-25T13:10:32.651Z,99108.25
2022-12-25T13:13:10.984Z,99097.41
2022-12-25T13:15:39.106Z,99095.28
2022-12-25T13:18:10.114Z,99102.13
2022-12-25T13:20:58.259Z,99098.09
2022-12-25T13:23:32.476Z,99110.63
2022-12-25T13:26:14.887Z,99106.84
2022-12-25T13:28:41.727Z,99111.22
2022-12-25T13:31:23.936Z,99113.69
2022-12-25T13:33:58.214Z,99110.97
2022-12-25T13:36:27.304Z,99113.44
2022-12-25T13:38:57.604Z,99118.88
2022-12-25T13:42:04.590Z,99115.09
2022-12-25T13:44:39.559Z,99122.16
2022-12-25T13:47:20.113Z,99115.91
2022-12-25T13:49:48.240Z,99115.78
2022-12-25T13:52:18.951Z,99112.81
2022-12-25T13:54:57.214Z,99111.75
2022-12-25T13:57:37.561Z,99108.94
2022-12-25T14:00:16.390Z,99107.28
2022-12-25T14:02:43.362Z,99103.75
2022-12-25T14:05:22.263Z,99095.84
2022-12-25T14:07:53.582Z,99096.69
2022-12-25T14:10:25.943Z,99088.53
2022-12-25T14:12:56.293Z,99093.37
2022-12-25T14:15:24.057Z,99089.03
2022-12-25T14:17:51.727Z,99085.47
2022-12-25T14:20:30.162Z,99089.25
2022-12-25T14:22:59.759Z,99094.09
2022-12-25T14:25:33.500Z,99095.16
2022-12-25T14:28:05.910Z,99096.22
2022-12-25T14:30:33.145Z,99101.03
2022-12-25T14:33:02.678Z,99104.34
2022-12-25T14:35:29.635Z,99101.63
2022-12-25T14:38:00.214Z,99095.63
2022-12-25T14:40:30.999Z,99096.09
2022-12-25T14:43:00.405Z,99094.44
2022-12-25T14:45:35.782Z,99087.03
2022-12-25T14:48:22.875Z,99093.53
2022-12-25T14:50:58.462Z,99098.38
2022-12-25T14:53:35.630Z,99092.59
2022-12-25T14:56:02.874Z,99091.78
2022-12-25T14:58:32.868Z,99093.91
2022-12-25T15:01:05.040Z,99099.56
2022-12-25T15:03:41.085Z,99097.09
2022-12-25T15:06:19.872Z,99099.19
2022-12-25T15:09:06.405Z,99098.59
2022-12-25T15:11:33.242Z,99103.91
2022-12-25T15:14:00.120Z,99103.31
2022-12-25T15:16:31.091Z,99097.22
2022-12-25T15:19:00.565Z,99091.41
2022-12-25T15:21:33.069Z,99095.38
2022-12-25T15:24:00.513Z,99095.03
2022-12-25T15:26:29.100Z,99096.09
2022-12-25T15:28:55.894Z,99097.16
2022-12-25T15:31:31.030Z,99096.81
2022-12-25T15:34:00.380Z,99096.47
2022-12-25T15:36:28.151Z,99098.00
2022-12-25T15:38:56.124Z,99100.94
2022-12-25T15:41:44.427Z,99103.28
2022-12-25T15:44:12.562Z,99109.16
2022-12-25T15:46:39.493Z,99099.84
2022-12-25T15:49:06.352Z,99100.31
2022-12-25T15:51:33.587Z,99099.13
2022-12-25T15:54:00.390Z,99096.66
2022-12-25T15:56:28.095Z,99094.41
2022-12-25T15:58:55.399Z,99092.78
2022-12-25T16:01:22.337Z,99095.94
2022-12-25T16:03:49.285Z,99096.38
2022-12-25T16:06:18.483Z,99089.31
2022-12-25T16:08:45.910Z,99093.31
2022-12-25T16:11:12.823Z,99091.09
2022-12-25T16:13:39.654Z,99084.25
2022-12-25T16:16:07.052Z,99091.19
2022-12-25T16:18:34.047Z,99086.47
2022-12-25T16:21:00.849Z,99092.34
2022-12-25T16:23:27.828Z,99088.81
2022-12-25T16:25:54.641Z,99091.97
2022-12-25T16:28:21.419Z,99094.31
2022-12-25T16:30:48.479Z,99083.94
2022-12-25T16:33:15.611Z,99081.94
2022-12-25T16:35:42.486Z,99089.69
2022-12-25T16:38:09.362Z,99084.28
2022-12-25T16:40:36.193Z,99079.34
2022-12-25T16:43:03.199Z,99070.03
2022-12-25T16:45:29.984Z,99071.06
2022-12-25T16:47:57.505Z,99064.44
2022-12-25T16:50:24.357Z,99063.56
2022-12-25T16:52:51.451Z,99053.91
2022-12-25T16:55:18.535Z,99046.25
2022-12-25T16:57:48.452Z,99036.69
2022-12-25T17:00:15.690Z,99025.25
2022-12-25T17:02:42.659Z,99016.31
2022-12-25T17:05:10.158Z,99017.47
2022-12-25T17:07:37.744Z,99026.31
2022-12-25T17:10:06.015Z,99024.87
2022-12-25T17:12:34.061Z,99026.53
2022-12-25T17:15:00.849Z,99021.12
2022-12-25T17:17:27.788Z,99026.66
2022-12-25T17:19:54.582Z,99026.44
2022-12-25T17:22:21.445Z,99018.91
2022-12-25T17:24:48.293Z,99029.84
2022-12-25T17:27:15.111Z,99032.56
2022-12-25T17:29:43.937Z,99046.91
2022-12-25T17:32:12.296Z,99036.69
2022-12-25T17:34:39.042Z,99032.13
2022-12-25T17:37:06.403Z,99027.75
2022-12-25T17:39:33.327Z,99027.97
2022-12-25T17:42:00.179Z,99024.44
2022-12-25T17:44:27.392Z,99032.78
2022-12-25T17:46:54.513Z,99037.16
2022-12-25T17:49:22.409Z,99038.44
2022-12-25T17:51:49.376Z,99038.22
2022-12-25T17:54:16.220Z,99030.31
2022-12-25T17:56:43.041Z,99027.84
2022-12-25T17:59:18.121Z,99030.56
2022-12-25T18:01:46.251Z,99021.84
2022-12-25T18:04:13.257Z,99023.47
2022-12-25T18:06:40.080Z,99023.47
2022-12-25T18:09:07.345Z,99015.59
2022-12-25T18:11:36.940Z,99018.53
2022-12-25T18:14:05.732Z,99017.47
2022-12-25T18:16:36.033Z,99016.41
2022-12-25T18:19:03.542Z,99019.13
2022-12-25T18:21:30.824Z,99014.78
2022-12-25T18:23:58.101Z,99018.31
2022-12-25T18:26:26.053Z,99025.59
2022-12-25T18:28:52.970Z,99029.12
2022-12-25T18:31:23.387Z,99016.88
2022-12-25T18:33:51.556Z,98997.72
2022-12-25T18:36:21.564Z,98993.13
2022-12-25T18:38:49.314Z,98987.69
2022-12-25T18:41:16.492Z,98989.34
2022-12-25T18:43:52.654Z,98988.53
2022-12-25T18:46:27.453Z,98983.34
2022-12-25T18:48:56.193Z,98976.88
2022-12-25T18:51:24.211Z,98976.28
2022-12-25T18:53:51.440Z,98964.63
2022-12-25T18:56:19.297Z,98959.22
2022-12-25T18:58:47.173Z,98949.22
2022-12-25T19:01:20.342Z,98956.28
2022-12-25T19:03:49.131Z,98938.16
2022-12-25T19:06:18.424Z,98951.69
2022-12-25T19:08:45.896Z,98952.50
2022-12-25T19:11:12.870Z,98944.63
2022-12-25T19:13:39.801Z,98939.22
2022-12-25T19:16:07.238Z,98921.31
2022-12-25T19:18:34.312Z,98920.28
2022-12-25T19:21:06.538Z,98921.31
2022-12-25T19:23:34.465Z,98909.44
2022-12-25T19:26:04.965Z,98914.84
2022-12-25T19:28:31.767Z,98905.09
2022-12-25T19:31:02.652Z,98906.72
2022-12-25T19:33:31.598Z,98903.44
2022-12-25T19:36:04.230Z,98916.38
2022-12-25T19:38:31.359Z,98916.38
2022-12-25T19:41:01.560Z,98920.16
2022-12-25T19:43:30.193Z,98915.78
2022-12-25T19:45:57.691Z,98916.63
2022-12-25T19:48:25.093Z,98920.97
2022-12-25T19:50:52.810Z,98920.97
2022-12-25T19:53:23.269Z,98923.69
2022-12-25T19:55:52.418Z,98917.22
2022-12-25T19:58:20.917Z,98908.25
2022-12-25T20:01:18.543Z,98901.78
2022-12-25T20:03:46.640Z,98907.22
2022-12-25T20:06:19.838Z,98893.66
2022-12-25T20:08:48.248Z,98908.84
2022-12-25T20:11:16.211Z,98889.06
2022-12-25T20:13:43.875Z,98900.72
2022-12-25T20:16:11.784Z,98901.56
2022-12-25T20:18:40.119Z,98899.44
2022-12-25T20:21:11.652Z,98897.56
2022-12-25T20:23:38.891Z,98892.12
2022-12-25T20:26:06.176Z,98895.44
2022-12-25T20:28:35.262Z,98897.91
2022-12-25T20:31:06.791Z,98901.44
2022-12-25T20:33:34.761Z,98893.06
2022-12-25T20:36:03.594Z,98899.31
2022-12-25T20:38:30.632Z,98898.25
2022-12-25T20:41:26.363Z,98899.09
2022-12-25T20:43:53.066Z,98909.66
2022-12-25T20:46:20.351Z,98897.78
2022-12-25T20:48:47.433Z,98889.66
2022-12-25T20:51:16.958Z,98885.06
2022-12-25T20:53:44.814Z,98883.22
2022-12-25T20:56:14.038Z,98888.41
2022-12-25T20:58:41.493Z,98883.22
2022-12-25T21:01:12.961Z,98879.22
2022-12-25T21:03:40.786Z,98862.16
2022-12-25T21:06:08.811Z,98862.38
2022-12-25T21:08:36.792Z,98865.28
2022-12-25T21:11:04.581Z,98868.00
2022-12-25T21:13:34.207Z,98869.88
2022-12-25T21:16:01.262Z,98867.41
2022-12-25T21:18:28.484Z,98870.94
2022-12-25T21:20:58.006Z,98861.19
2022-12-25T21:23:28.112Z,98869.53
2022-12-25T21:25:55.007Z,98865.78
2022-12-25T21:28:23.246Z,98857.87
2022-12-25T21:30:50.378Z,98855.41
2022-12-25T21:33:35.807Z,98855.66
2022-12-25T21:36:10.766Z,98851.31
2022-12-25T21:38:38.713Z,98839.66
2022-12-25T21:41:08.479Z,98851.53
2022-12-25T21:43:37.530Z,98856.59
2022-12-25T21:46:06.272Z,98859.31
2022-12-25T21:48:34.811Z,98871.44
2022-12-25T21:51:25.619Z,98873.31
2022-12-25T21:53:52.603Z,98870.84
2022-12-25T21:56:19.466Z,98865.66
2022-12-25T21:58:47.287Z,98856.97
2022-12-25T22:01:16.953Z,98842.59
2022-12-25T22:03:44.736Z,98851.97
2022-12-25T22:06:30.857Z,98850.34
2022-12-25T22:08:57.647Z,98847.63
2022-12-25T22:11:54.691Z,98840.56
2022-12-25T22:14:51.731Z,98848.09
2022-12-25T22:17:41.965Z,98838.94
2022-12-25T22:20:12.449Z,98834.34
2022-12-25T22:22:39.218Z,98843.50
2022-12-25T22:25:06.972Z,98834.81
2022-12-25T22:27:36.535Z,98841.28
2022-12-25T22:30:05.150Z,98841.28
2022-12-25T22:32:32.007Z,98822.81
2022-12-25T22:34:58.885Z,98828.22
2022-12-25T22:37:25.944Z,98824.47
2022-12-25T22:39:52.722Z,98819.75
2022-12-25T22:42:19.719Z,98808.69
2022-12-25T22:44:47.544Z,98819.53
2022-12-25T22:47:14.333Z,98813.53
2022-12-25T22:49:41.259Z,98821.63
2022-12-25T22:52:09.865Z,98833.28
2022-12-25T22:54:37.432Z,98831.41
2022-12-25T22:57:04.648Z,98835.16
2022-12-25T22:59:33.016Z,98833.41
2022-12-25T23:02:00.960Z,98831.75
2022-12-25T23:04:28.917Z,98835.47
2022-12-25T23:06:56.261Z,98828.44
2022-12-25T23:09:27.698Z,98829.50
2022-12-25T23:11:58.893Z,98824.47
2022-12-25T23:14:38.854Z,98829.41
2022-12-25T23:17:30.545Z,98823.16
2022-12-25T23:20:17.299Z,98828.00
2022-12-25T23:23:02.943Z,98828.22
2022-12-25T23:25:48.844Z,98824.78
2022-12-25T23:28:35.717Z,98820.06
2022-12-25T23:31:02.723Z,98834.66
2022-12-25T23:33:29.650Z,98838.66
2022-12-25T23:35:56.548Z,98840.53
2022-12-25T23:38:23.371Z,98833.72
2022-12-25T23:40:50.210Z,98842.06
2022-12-25T23:43:17.019Z,98843.13
2022-12-25T23:45:43.813Z,98839.34
2022-12-25T23:48:10.664Z,98832.53
2022-12-25T23:50:40.464Z,98827.13
2022-12-25T23:53:07.323Z,98824.66
2022-12-25T23:55:34.400Z,98820.06
2022-12-25T23:58:01.254Z,98824.66
